Etusivu
METAR-TAF:

METAR-TAF

Lentoasemat :

Delta County Airport

Escanaba, Michigan, Yhdysvallat

Leveyspiiri: 45-45N, Pituuspiiri: 087-02W, korkeus merenpinnasta: 180 m

Tämänhetkinen sää

Tämä raportti tehtiin 44 minuuttia sitten, kello 03.56 UTC
tyyntä
Lämpötila -14°C
Kosteus 85%
Ilmanpaine 1025 hPa
Näkyvyys: 14.5 km
selkeää

METAR: KESC 130356Z AUTO 00000KT 9SM CLR M14/M16 A3027 RMK AO2 SLP269 T11391156 FZRANO

Aika: 23:40 (04:40 UTC)


TAF: puuttuu

Säähavainnot ja -ennusteet yli 4000 lentoasemalta (METAR- ja TAF-raportit).

Käytössä olevat sääasemat on merkitty karttaan keltaisilla ja punaisilla pisteillä.

Aseta hiiri pisteen päälle nähdäksesi sääaseman nimen.

Klikkaa sitten nähdäksesi säähavainnot ja -ennusteet.

Kartan vaihtaminen: klikkaa mustalla rastilla varustettuja vihreitä pisteitä, niin voit zoomata sisään; viivalla varustettua vihreää pistettä, niin voit zoomata ulos tai vihreitä nuolia, niin pääset viereisille kartoille.


METAR-TAF: